createdAt,value
2018-07-14T00:00:47.215Z,99.88
2018-07-14T00:01:47.175Z,99.68
2018-07-14T00:02:47.165Z,99.99
2018-07-14T00:03:47.105Z,99.63
2018-07-14T00:04:47.057Z,99.99
2018-07-14T00:05:47.019Z,99.99
2018-07-14T00:06:46.985Z,99.99
2018-07-14T00:07:46.948Z,99.99
2018-07-14T00:08:46.937Z,99.99
2018-07-14T00:09:46.879Z,99.99
2018-07-14T00:10:46.841Z,99.99
2018-07-14T00:11:46.806Z,99.99
2018-07-14T00:12:46.759Z,99.99
2018-07-14T00:13:46.752Z,99.99
2018-07-14T00:14:46.694Z,99.99
2018-07-14T00:15:46.653Z,99.99
2018-07-14T00:16:46.617Z,99.99
2018-07-14T00:17:46.576Z,99.99
2018-07-14T00:18:46.562Z,99.99
2018-07-14T00:19:46.504Z,99.99
2018-07-14T00:20:46.471Z,99.99
2018-07-14T00:21:46.443Z,99.99
2018-07-14T00:22:46.400Z,99.99
2018-07-14T00:23:46.385Z,99.99
2018-07-14T00:24:46.314Z,99.99
2018-07-14T00:25:46.280Z,99.99
2018-07-14T00:26:46.246Z,99.99
2018-07-14T00:27:46.203Z,99.99
2018-07-14T00:28:46.176Z,99.99
2018-07-14T00:29:46.161Z,99.99
2018-07-14T00:30:46.093Z,99.99
2018-07-14T00:31:46.055Z,99.99
2018-07-14T00:32:46.026Z,99.99
2018-07-14T00:33:45.985Z,99.99
2018-07-14T00:34:45.969Z,99.99
2018-07-14T00:35:45.913Z,99.99
2018-07-14T00:36:45.868Z,99.99
2018-07-14T00:37:45.831Z,99.99
2018-07-14T00:38:45.801Z,99.99
2018-07-14T00:39:45.784Z,99.99
2018-07-14T00:40:45.725Z,99.99
2018-07-14T00:41:45.695Z,99.99
2018-07-14T00:42:45.654Z,99.99
2018-07-14T00:43:45.619Z,99.99
2018-07-14T00:44:45.574Z,99.99
2018-07-14T00:45:45.553Z,99.99
2018-07-14T00:46:45.504Z,99.99
2018-07-14T00:47:45.469Z,99.99
2018-07-14T00:48:45.422Z,99.99
2018-07-14T00:49:45.384Z,99.99
2018-07-14T00:50:45.368Z,99.99
2018-07-14T00:51:45.313Z,99.99
2018-07-14T00:52:45.281Z,99.99
2018-07-14T00:53:45.242Z,99.99
2018-07-14T00:54:45.209Z,99.99
2018-07-14T00:55:45.191Z,99.99
2018-07-14T00:56:45.123Z,99.99
2018-07-14T00:57:45.088Z,99.99
2018-07-14T00:58:45.048Z,99.99
2018-07-14T00:59:45.015Z,99.99
2018-07-14T01:00:45.002Z,99.99
2018-07-14T01:01:44.945Z,99.99
2018-07-14T01:02:44.899Z,99.99
2018-07-14T01:03:44.864Z,99.99
2018-07-14T01:04:44.833Z,99.99
2018-07-14T01:05:44.828Z,99.99
2018-07-14T01:06:44.758Z,99.99
2018-07-14T01:07:44.720Z,99.99
2018-07-14T01:08:44.677Z,99.99
2018-07-14T01:09:44.644Z,99.99
2018-07-14T01:10:44.602Z,99.99
2018-07-14T01:11:44.586Z,99.99
2018-07-14T01:12:44.537Z,99.99
2018-07-14T01:13:44.494Z,99.99
2018-07-14T01:14:44.458Z,99.99
2018-07-14T01:15:44.422Z,99.99
2018-07-14T01:16:44.409Z,99.99
2018-07-14T01:17:44.378Z,99.99
2018-07-14T01:18:44.309Z,99.99
2018-07-14T01:19:44.273Z,99.99
2018-07-14T01:20:44.226Z,99.99
2018-07-14T01:21:44.188Z,99.99
2018-07-14T01:22:44.175Z,99.99
2018-07-14T01:23:44.122Z,99.99
2018-07-14T01:24:44.084Z,99.99
2018-07-14T01:25:44.049Z,99.99
2018-07-14T01:26:44.037Z,99.99
2018-07-14T01:27:43.973Z,99.99
2018-07-14T01:28:43.927Z,99.99
2018-07-14T01:29:43.890Z,99.99
2018-07-14T01:30:43.853Z,99.99
2018-07-14T01:31:43.819Z,99.99
2018-07-14T01:32:43.806Z,99.99
2018-07-14T01:33:43.750Z,99.99
2018-07-14T01:34:43.704Z,99.99
2018-07-14T01:35:43.662Z,99.99
2018-07-14T01:36:43.632Z,99.99
2018-07-14T01:37:43.623Z,99.99
2018-07-14T01:38:43.561Z,99.99
2018-07-14T01:39:43.530Z,99.99
2018-07-14T01:40:43.568Z,99.99
2018-07-14T01:41:43.441Z,99.99
2018-07-14T01:42:43.406Z,99.99
2018-07-14T01:43:43.389Z,99.99
2018-07-14T01:44:43.334Z,99.99
2018-07-14T01:45:43.297Z,99.99
2018-07-14T01:46:43.259Z,99.99
2018-07-14T01:47:43.221Z,99.99
2018-07-14T01:48:43.199Z,99.99
2018-07-14T01:49:43.139Z,99.99
2018-07-14T01:50:43.109Z,99.99
2018-07-14T01:51:43.075Z,99.99
2018-07-14T01:52:43.031Z,99.99
2018-07-14T01:53:43.013Z,99.99
2018-07-14T01:54:42.954Z,99.99
2018-07-14T01:55:42.917Z,99.99
2018-07-14T01:56:42.884Z,99.99
2018-07-14T01:57:42.849Z,99.99
2018-07-14T01:58:42.838Z,99.99
2018-07-14T01:59:42.772Z,99.99
2018-07-14T02:00:42.727Z,99.99
2018-07-14T02:01:42.691Z,99.99
2018-07-14T02:02:42.653Z,99.99
2018-07-14T02:03:42.637Z,99.99
2018-07-14T02:04:42.587Z,99.99
2018-07-14T02:05:42.548Z,99.99
2018-07-14T02:06:42.501Z,99.99
2018-07-14T02:07:42.467Z,99.99
2018-07-14T02:08:42.460Z,99.99
2018-07-14T02:09:42.397Z,99.99
2018-07-14T02:10:42.360Z,99.99
2018-07-14T02:11:42.320Z,99.99
2018-07-14T02:12:42.274Z,99.99
2018-07-14T02:13:42.248Z,99.99
2018-07-14T02:14:42.225Z,99.99
2018-07-14T02:15:42.164Z,99.99
2018-07-14T02:16:42.134Z,99.99
2018-07-14T02:17:42.110Z,99.99
2018-07-14T02:18:42.057Z,99.99
2018-07-14T02:19:42.040Z,99.99
2018-07-14T02:20:41.974Z,99.99
2018-07-14T02:21:41.936Z,99.99
2018-07-14T02:22:41.909Z,99.99
2018-07-14T02:23:41.868Z,99.99
2018-07-14T02:24:41.845Z,99.99
2018-07-14T02:25:41.786Z,99.99
2018-07-14T02:26:41.746Z,99.99
2018-07-14T02:27:41.711Z,99.99
2018-07-14T02:28:41.686Z,99.99
2018-07-14T02:29:41.679Z,99.99
2018-07-14T02:30:41.613Z,99.99
2018-07-14T02:31:41.565Z,99.99
2018-07-14T02:32:41.520Z,99.99
2018-07-14T02:33:41.484Z,99.99
2018-07-14T02:34:41.453Z,99.99
2018-07-14T02:35:41.429Z,99.99
2018-07-14T02:36:41.375Z,99.99
2018-07-14T02:37:41.340Z,99.99
2018-07-14T02:38:41.297Z,99.99
2018-07-14T02:39:41.256Z,99.99
2018-07-14T02:40:41.254Z,99.99
2018-07-14T02:41:41.186Z,99.99
2018-07-14T02:42:41.147Z,99.99
2018-07-14T02:43:41.126Z,99.99
2018-07-14T02:44:41.065Z,99.99
2018-07-14T02:45:41.050Z,99.99
2018-07-14T02:46:40.991Z,99.99
2018-07-14T02:47:40.956Z,99.99
2018-07-14T02:48:40.917Z,99.99
2018-07-14T02:49:40.881Z,99.99
2018-07-14T02:50:40.871Z,99.99
2018-07-14T02:51:40.805Z,99.99
2018-07-14T02:52:40.760Z,99.99
2018-07-14T02:53:40.724Z,99.99
2018-07-14T02:54:40.692Z,99.99
2018-07-14T02:55:40.656Z,99.99
2018-07-14T02:56:40.631Z,99.99
2018-07-14T02:57:40.572Z,99.99
2018-07-14T02:58:40.533Z,99.99
2018-07-14T02:59:40.569Z,99.99
2018-07-14T03:00:40.460Z,99.99
2018-07-14T03:01:40.448Z,99.99
2018-07-14T03:02:40.385Z,99.99
2018-07-14T03:03:40.350Z,99.99
2018-07-14T03:04:40.301Z,99.99
2018-07-14T03:05:40.271Z,99.99
2018-07-14T03:06:40.253Z,99.99
2018-07-14T03:07:40.188Z,99.99
2018-07-14T03:08:40.161Z,99.99
2018-07-14T03:09:40.119Z,99.99
2018-07-14T03:10:40.073Z,99.99
2018-07-14T03:11:40.037Z,99.99
2018-07-14T03:12:40.039Z,99.99
2018-07-14T03:13:39.965Z,99.99
2018-07-14T03:14:39.927Z,99.99
2018-07-14T03:15:39.889Z,99.99
2018-07-14T03:16:39.844Z,99.99
2018-07-14T03:17:39.829Z,99.99
2018-07-14T03:18:39.767Z,99.99
2018-07-14T03:19:39.738Z,99.99
2018-07-14T03:20:39.699Z,99.99
2018-07-14T03:21:39.668Z,99.99
2018-07-14T03:22:39.666Z,99.99
2018-07-14T03:23:39.589Z,99.99
2018-07-14T03:24:39.538Z,99.99
2018-07-14T03:25:39.500Z,99.99
2018-07-14T03:26:39.470Z,99.99
2018-07-14T03:27:39.435Z,99.99
2018-07-14T03:28:39.404Z,99.99
2018-07-14T03:29:39.346Z,99.99
2018-07-14T03:30:39.307Z,99.99
2018-07-14T03:31:39.273Z,99.99
2018-07-14T03:32:39.236Z,99.99
2018-07-14T03:33:39.222Z,99.99
2018-07-14T03:34:39.161Z,99.99
2018-07-14T03:35:39.125Z,99.99
2018-07-14T03:36:39.098Z,99.99
2018-07-14T03:37:39.042Z,99.99
2018-07-14T03:38:39.025Z,99.99
2018-07-14T03:39:38.961Z,99.99
2018-07-14T03:40:38.933Z,99.99
2018-07-14T03:41:38.891Z,99.99
2018-07-14T03:42:38.862Z,99.99
2018-07-14T03:43:38.841Z,99.99
2018-07-14T03:44:38.778Z,99.99
2018-07-14T03:45:38.748Z,99.99
2018-07-14T03:46:38.700Z,99.99
2018-07-14T03:47:38.663Z,99.99
2018-07-14T03:48:38.622Z,99.99
2018-07-14T03:49:38.602Z,99.99
2018-07-14T03:50:38.539Z,99.99
2018-07-14T03:51:38.516Z,99.99
2018-07-14T03:52:38.467Z,99.99
2018-07-14T03:53:38.432Z,99.99
2018-07-14T03:54:38.414Z,99.99
2018-07-14T03:55:38.358Z,99.99
2018-07-14T03:56:38.315Z,99.99
2018-07-14T03:57:38.273Z,99.99
2018-07-14T03:58:38.243Z,99.99
2018-07-14T03:59:38.226Z,99.99
2018-07-14T04:00:38.162Z,99.99
2018-07-14T04:01:38.121Z,99.99
2018-07-14T04:02:38.125Z,99.99
2018-07-14T04:03:38.045Z,99.99
2018-07-14T04:04:38.018Z,99.99
2018-07-14T04:05:37.997Z,99.99
2018-07-14T04:06:38.020Z,99.99
2018-07-14T04:07:37.895Z,99.99
2018-07-14T04:08:37.859Z,99.99
2018-07-14T04:09:37.813Z,99.99
2018-07-14T04:10:37.803Z,99.99
2018-07-14T04:11:37.736Z,99.99
2018-07-14T04:12:37.707Z,99.99
2018-07-14T04:13:37.666Z,99.99
2018-07-14T04:14:37.658Z,99.99
2018-07-14T04:15:37.605Z,99.99
2018-07-14T04:16:37.550Z,99.99
2018-07-14T04:17:37.527Z,99.99
2018-07-14T04:18:37.476Z,99.99
2018-07-14T04:19:37.441Z,99.99
2018-07-14T04:20:37.418Z,99.99
2018-07-14T04:21:37.365Z,99.99
2018-07-14T04:22:37.312Z,99.99
2018-07-14T04:23:37.281Z,99.99
2018-07-14T04:24:37.243Z,99.99
2018-07-14T04:25:37.213Z,99.99
2018-07-14T04:26:37.189Z,99.99
2018-07-14T04:27:37.132Z,99.99
2018-07-14T04:28:37.089Z,99.99
2018-07-14T04:29:37.046Z,99.99
2018-07-14T04:30:37.017Z,99.99
2018-07-14T04:31:37.001Z,99.99
2018-07-14T04:32:36.929Z,99.99
2018-07-14T04:33:36.895Z,99.99
2018-07-14T04:34:36.860Z,99.99
2018-07-14T04:35:36.826Z,99.99
2018-07-14T04:36:36.814Z,99.99
2018-07-14T04:37:36.753Z,99.99
2018-07-14T04:38:36.718Z,99.99
2018-07-14T04:39:36.672Z,99.99
2018-07-14T04:40:36.632Z,99.99
2018-07-14T04:41:36.594Z,99.99
2018-07-14T04:42:36.578Z,99.99
2018-07-14T04:43:36.527Z,99.99
2018-07-14T04:44:36.486Z,99.99
2018-07-14T04:45:36.450Z,99.99
2018-07-14T04:46:36.402Z,99.99
2018-07-14T04:47:36.392Z,99.99
2018-07-14T04:48:36.331Z,99.99
2018-07-14T04:49:36.293Z,99.99
2018-07-14T04:50:36.263Z,99.99
2018-07-14T04:51:36.231Z,97.47
2018-07-14T04:52:36.205Z,95.64
2018-07-14T04:53:36.142Z,94.24
2018-07-14T04:54:36.106Z,93.86
2018-07-14T04:55:36.064Z,93.09
2018-07-14T04:56:36.038Z,92.32
2018-07-14T04:57:36.024Z,92.90
2018-07-14T04:58:35.965Z,92.85
2018-07-14T04:59:35.932Z,92.75
2018-07-14T05:00:35.881Z,91.35
2018-07-14T05:01:35.848Z,90.19
2018-07-14T05:02:35.813Z,89.85
2018-07-14T05:03:35.801Z,88.79
2018-07-14T05:04:35.737Z,87.77
2018-07-14T05:05:35.707Z,87.19
2018-07-14T05:06:35.668Z,86.90
2018-07-14T05:07:35.625Z,86.22
2018-07-14T05:08:35.627Z,86.90
2018-07-14T05:09:35.566Z,85.11
2018-07-14T05:10:35.530Z,85.30
2018-07-14T05:11:35.499Z,85.40
2018-07-14T05:12:35.450Z,85.01
2018-07-14T05:13:35.443Z,85.21
2018-07-14T05:14:35.383Z,85.49
2018-07-14T05:15:35.341Z,84.28
2018-07-14T05:16:35.330Z,84.19
2018-07-14T05:17:35.283Z,83.03
2018-07-14T05:18:35.241Z,82.39
2018-07-14T05:19:35.258Z,82.68
2018-07-14T05:20:35.177Z,80.11
2018-07-14T05:21:35.143Z,78.79
2018-07-14T05:22:35.120Z,78.21
2018-07-14T05:23:35.079Z,79.17
2018-07-14T05:24:35.061Z,78.94
2018-07-14T05:25:35.005Z,79.43
2018-07-14T05:26:35.008Z,79.76
2018-07-14T05:27:34.928Z,77.47
2018-07-14T05:28:34.907Z,76.21
2018-07-14T05:29:34.902Z,76.41
2018-07-14T05:30:34.834Z,75.28
2018-07-14T05:31:34.801Z,74.99
2018-07-14T05:32:34.768Z,74.80
2018-07-14T05:33:34.726Z,73.67
2018-07-14T05:34:34.711Z,74.64
2018-07-14T05:35:34.687Z,75.13
2018-07-14T05:36:34.621Z,74.45
2018-07-14T05:37:34.596Z,73.58
2018-07-14T05:38:34.557Z,72.99
2018-07-14T05:39:34.533Z,73.67
2018-07-14T05:40:34.516Z,73.86
2018-07-14T05:41:34.472Z,72.35
2018-07-14T05:42:34.426Z,72.55
2018-07-14T05:43:34.404Z,73.42
2018-07-14T05:44:34.355Z,73.32
2018-07-14T05:45:34.346Z,72.55
2018-07-14T05:46:34.289Z,71.12
2018-07-14T05:47:34.262Z,68.44
2018-07-14T05:48:34.228Z,67.80
2018-07-14T05:49:34.197Z,65.85
2018-07-14T05:50:34.181Z,65.95
2018-07-14T05:51:34.123Z,65.79
2018-07-14T05:52:34.096Z,65.47
2018-07-14T05:53:34.065Z,65.27
2018-07-14T05:54:34.031Z,64.40
2018-07-14T05:55:34.001Z,65.85
2018-07-14T05:56:33.984Z,66.05
2018-07-14T05:57:33.926Z,65.92
2018-07-14T05:58:33.894Z,65.47
2018-07-14T05:59:33.864Z,65.37
2018-07-14T06:00:33.837Z,65.85
2018-07-14T06:01:33.826Z,65.66
2018-07-14T06:02:33.768Z,65.37
2018-07-14T06:03:33.740Z,65.69
2018-07-14T06:04:33.699Z,65.30
2018-07-14T06:05:33.668Z,64.91
2018-07-14T06:06:33.668Z,64.33
2018-07-14T06:07:33.610Z,64.04
2018-07-14T06:08:33.649Z,62.13
2018-07-14T06:09:33.536Z,61.90
2018-07-14T06:10:33.506Z,63.20
2018-07-14T06:11:33.475Z,62.93
2018-07-14T06:12:33.470Z,61.51
2018-07-14T06:13:33.417Z,61.05
2018-07-14T06:14:33.384Z,59.00
2018-07-14T06:15:33.352Z,59.30
2018-07-14T06:16:33.312Z,59.00
2018-07-14T06:17:33.301Z,57.37
2018-07-14T06:18:33.247Z,57.45
2018-07-14T06:19:33.230Z,58.22
2018-07-14T06:20:33.235Z,59.46
2018-07-14T06:21:33.175Z,59.85
2018-07-14T06:22:33.150Z,61.02
2018-07-14T06:23:33.094Z,60.27
2018-07-14T06:24:33.067Z,59.69
2018-07-14T06:25:33.032Z,60.27
2018-07-14T06:26:33.004Z,60.14
2018-07-14T06:27:32.978Z,59.88
2018-07-14T06:28:32.953Z,58.71
2018-07-14T06:29:32.901Z,58.32
2018-07-14T06:30:32.871Z,59.52
2018-07-14T06:31:32.841Z,58.77
2018-07-14T06:32:32.814Z,57.53
2018-07-14T06:33:32.807Z,56.04
2018-07-14T06:34:32.751Z,56.26
2018-07-14T06:35:32.720Z,56.16
2018-07-14T06:36:32.685Z,56.29
2018-07-14T06:37:32.675Z,56.36
2018-07-14T06:38:32.735Z,56.33
2018-07-14T06:39:32.596Z,56.14
2018-07-14T06:40:32.559Z,57.31
2018-07-14T06:41:32.527Z,55.68
2018-07-14T06:42:32.497Z,57.01
2018-07-14T06:43:32.490Z,57.20
2018-07-14T06:44:32.444Z,55.24
2018-07-14T06:45:32.412Z,55.08
2018-07-14T06:46:32.380Z,54.27
2018-07-14T06:47:32.353Z,54.79
2018-07-14T06:48:32.312Z,54.46
2018-07-14T06:49:32.304Z,55.12
2018-07-14T06:50:32.252Z,55.32
2018-07-14T06:51:32.218Z,54.27
2018-07-14T06:52:32.196Z,55.71
2018-07-14T06:53:32.166Z,56.07
2018-07-14T06:54:32.158Z,56.43
2018-07-14T06:55:32.100Z,56.52
2018-07-14T06:56:32.077Z,56.46
2018-07-14T06:57:32.075Z,56.33
2018-07-14T06:58:32.017Z,55.87
2018-07-14T06:59:32.012Z,57.39
2018-07-14T07:00:31.947Z,55.90
2018-07-14T07:01:31.915Z,56.45
2018-07-14T07:02:31.888Z,54.20
2018-07-14T07:03:31.859Z,55.51
2018-07-14T07:04:31.862Z,56.36
2018-07-14T07:05:31.812Z,57.28
2018-07-14T07:06:31.774Z,57.47
2018-07-14T07:07:31.744Z,57.76
2018-07-14T07:08:31.734Z,58.22
2018-07-14T07:09:31.677Z,58.06
2018-07-14T07:10:31.678Z,57.89
2018-07-14T07:11:31.625Z,59.45
2018-07-14T07:12:31.586Z,57.53
2018-07-14T07:13:31.553Z,56.23
2018-07-14T07:14:31.525Z,58.58
2018-07-14T07:15:31.517Z,56.46
2018-07-14T07:16:31.481Z,57.60
2018-07-14T07:17:31.447Z,57.64
2018-07-14T07:18:31.412Z,58.59
2018-07-14T07:19:31.380Z,59.78
2018-07-14T07:20:31.378Z,58.81
2018-07-14T07:21:31.341Z,58.71
2018-07-14T07:22:31.287Z,59.10
2018-07-14T07:23:31.255Z,58.42
2018-07-14T07:24:31.238Z,57.47
2018-07-14T07:25:31.200Z,57.76
2018-07-14T07:26:31.187Z,56.36
2018-07-14T07:27:31.143Z,57.60
2018-07-14T07:28:31.111Z,57.85
2018-07-14T07:29:31.087Z,54.95
2018-07-14T07:30:31.054Z,55.24
2018-07-14T07:31:31.042Z,54.17
2018-07-14T07:32:30.984Z,55.34
2018-07-14T07:33:30.956Z,54.53
2018-07-14T07:34:30.931Z,55.02
2018-07-14T07:35:30.895Z,56.38
2018-07-14T07:36:30.898Z,56.68
2018-07-14T07:37:30.845Z,55.94
2018-07-14T07:38:30.812Z,56.40
2018-07-14T07:39:30.784Z,58.28
2018-07-14T07:40:30.748Z,57.99
2018-07-14T07:41:30.735Z,56.26
2018-07-14T07:42:30.695Z,55.68
2018-07-14T07:43:30.665Z,56.36
2018-07-14T07:44:30.629Z,56.33
2018-07-14T07:45:30.597Z,56.62
2018-07-14T07:46:30.592Z,57.14
2018-07-14T07:47:30.542Z,58.18
2018-07-14T07:48:30.517Z,57.82
2018-07-14T07:49:30.486Z,58.31
2018-07-14T07:50:30.457Z,58.31
2018-07-14T07:51:30.427Z,58.09
2018-07-14T07:52:30.411Z,57.95
2018-07-14T07:53:30.365Z,57.56
2018-07-14T07:54:30.337Z,58.40
2018-07-14T07:55:30.305Z,58.34
2018-07-14T07:56:30.283Z,58.80
2018-07-14T07:57:30.275Z,58.24
2018-07-14T07:58:30.240Z,57.82
2018-07-14T07:59:30.189Z,60.00
2018-07-14T08:00:30.167Z,56.25
2018-07-14T08:01:30.140Z,55.76
2018-07-14T08:02:30.103Z,55.37
2018-07-14T08:03:30.102Z,54.85
2018-07-14T08:04:30.045Z,56.12
2018-07-14T08:05:30.025Z,57.88
2018-07-14T08:06:29.987Z,57.14
2018-07-14T08:07:29.961Z,57.43
2018-07-14T08:08:29.997Z,57.60
2018-07-14T08:09:29.908Z,58.84
2018-07-14T08:10:29.881Z,58.15
2018-07-14T08:11:29.856Z,59.64
2018-07-14T08:12:29.816Z,58.99
2018-07-14T08:13:29.818Z,57.79
2018-07-14T08:14:29.768Z,58.70
2018-07-14T08:15:29.743Z,58.02
2018-07-14T08:16:29.704Z,58.31
2018-07-14T08:17:29.678Z,57.99
2018-07-14T08:18:29.649Z,58.97
2018-07-14T08:19:29.647Z,61.44
2018-07-14T08:20:29.602Z,62.54
2018-07-14T08:21:29.574Z,62.96
2018-07-14T08:22:29.548Z,62.99
2018-07-14T08:23:29.514Z,61.15
2018-07-14T08:24:29.498Z,60.63
2018-07-14T08:25:29.467Z,61.54
2018-07-14T08:26:29.422Z,64.20
2018-07-14T08:27:29.396Z,61.87
2018-07-14T08:28:29.373Z,63.52
2018-07-14T08:29:29.375Z,62.57
2018-07-14T08:30:29.311Z,60.95
2018-07-14T08:31:29.283Z,61.08
2018-07-14T08:32:29.280Z,60.95
2018-07-14T08:33:29.235Z,61.90
2018-07-14T08:34:29.227Z,62.09
2018-07-14T08:35:29.179Z,62.80
2018-07-14T08:36:29.141Z,62.86
2018-07-14T08:37:29.120Z,60.49
2018-07-14T08:38:29.109Z,59.84
2018-07-14T08:39:29.116Z,59.88
2018-07-14T08:40:29.036Z,60.63
2018-07-14T08:41:29.009Z,61.60
2018-07-14T08:42:28.981Z,61.87
2018-07-14T08:43:28.958Z,61.63
2018-07-14T08:44:28.941Z,61.24
2018-07-14T08:45:28.894Z,61.90
2018-07-14T08:46:28.875Z,62.41
2018-07-14T08:47:28.845Z,60.78
2018-07-14T08:48:28.809Z,60.42
2018-07-14T08:49:28.804Z,59.52
2018-07-14T08:50:28.764Z,59.00
2018-07-14T08:51:28.756Z,60.95
2018-07-14T08:52:28.708Z,60.44
2018-07-14T08:53:28.679Z,61.34
2018-07-14T08:54:28.679Z,59.30
2018-07-14T08:55:28.628Z,59.46
2018-07-14T08:56:28.637Z,60.14
2018-07-14T08:57:28.564Z,61.41
2018-07-14T08:58:28.542Z,61.44
2018-07-14T08:59:28.532Z,59.52
2018-07-14T09:00:28.490Z,60.46
2018-07-14T09:01:28.463Z,60.44
2018-07-14T09:02:28.428Z,61.90
2018-07-14T09:03:28.413Z,60.53
2018-07-14T09:04:28.406Z,60.08
2018-07-14T09:05:28.358Z,59.88
2018-07-14T09:06:28.327Z,58.95
2018-07-14T09:07:28.302Z,60.11
2018-07-14T09:08:28.272Z,61.70
2018-07-14T09:09:28.239Z,59.75
2018-07-14T09:10:28.241Z,60.72
2018-07-14T09:11:28.191Z,61.02
2018-07-14T09:12:28.169Z,60.36
2018-07-14T09:13:28.143Z,59.42
2018-07-14T09:14:28.114Z,58.64
2018-07-14T09:15:28.109Z,59.39
2018-07-14T09:16:28.062Z,61.18
2018-07-14T09:17:28.024Z,58.09
2018-07-14T09:18:28.007Z,58.67
2018-07-14T09:19:27.976Z,58.67
2018-07-14T09:20:27.969Z,58.20
2018-07-14T09:21:27.916Z,61.47
2018-07-14T09:22:27.890Z,60.60
2018-07-14T09:23:27.865Z,60.92
2018-07-14T09:24:27.845Z,60.63
2018-07-14T09:25:27.822Z,59.69
2018-07-14T09:26:27.814Z,59.91
2018-07-14T09:27:27.763Z,59.42
2018-07-14T09:28:27.731Z,61.21
2018-07-14T09:29:27.705Z,57.84
2018-07-14T09:30:27.683Z,59.66
2018-07-14T09:31:27.724Z,61.41
2018-07-14T09:32:27.656Z,59.59
2018-07-14T09:33:27.630Z,59.33
2018-07-14T09:34:27.571Z,57.79
2018-07-14T09:35:27.545Z,59.62
2018-07-14T09:36:27.550Z,58.18
2018-07-14T09:37:27.498Z,57.89
2018-07-14T09:38:27.472Z,58.74
2018-07-14T09:39:27.450Z,60.33
2018-07-14T09:40:27.411Z,57.34
2018-07-14T09:41:27.386Z,56.95
2018-07-14T09:42:27.383Z,59.12
2018-07-14T09:43:27.336Z,58.92
2018-07-14T09:44:27.337Z,56.38
2018-07-14T09:45:27.296Z,57.34
2018-07-14T09:46:27.264Z,56.36
2018-07-14T09:47:27.262Z,57.50
2018-07-14T09:48:27.204Z,58.25
2018-07-14T09:49:27.180Z,59.72
2018-07-14T09:50:27.161Z,59.74
2018-07-14T09:51:27.133Z,57.89
2018-07-14T09:52:27.120Z,58.64
2018-07-14T09:53:27.073Z,57.79
2018-07-14T09:54:27.048Z,57.40
2018-07-14T09:55:27.026Z,57.34
2018-07-14T09:56:27.008Z,58.70
2018-07-14T09:57:26.980Z,54.99
2018-07-14T09:58:26.973Z,55.32
2018-07-14T09:59:26.929Z,55.90
2018-07-14T10:00:26.898Z,56.38
2018-07-14T10:01:26.870Z,57.82
2018-07-14T10:02:26.844Z,55.51
2018-07-14T10:03:26.892Z,56.00
2018-07-14T10:04:26.800Z,56.46
2018-07-14T10:05:26.776Z,56.56
2018-07-14T10:06:26.743Z,57.37
2018-07-14T10:07:26.718Z,57.74
2018-07-14T10:08:26.722Z,58.49
2018-07-14T10:09:26.675Z,60.31
2018-07-14T10:10:26.646Z,60.70
2018-07-14T10:11:26.620Z,62.81
2018-07-14T10:12:26.590Z,61.28
2018-07-14T10:13:26.590Z,61.31
2018-07-14T10:14:26.537Z,60.95
2018-07-14T10:15:26.517Z,59.33
2018-07-14T10:16:26.492Z,58.74
2018-07-14T10:17:26.543Z,59.55
2018-07-14T10:18:26.441Z,59.97
2018-07-14T10:19:26.442Z,58.67
2018-07-14T10:20:26.382Z,57.60
2018-07-14T10:21:26.357Z,57.54
2018-07-14T10:22:26.342Z,58.35
2018-07-14T10:23:26.341Z,58.15
2018-07-14T10:24:26.282Z,61.40
2018-07-14T10:25:26.309Z,57.50
2018-07-14T10:26:26.229Z,58.18
2018-07-14T10:27:26.203Z,58.67
2018-07-14T10:28:26.207Z,58.31
2018-07-14T10:29:26.157Z,57.57
2018-07-14T10:30:26.135Z,58.58
2018-07-14T10:31:26.107Z,59.45
2018-07-14T10:32:26.074Z,59.28
2018-07-14T10:33:26.050Z,57.75
2018-07-14T10:34:26.045Z,57.24
2018-07-14T10:35:26.003Z,57.04
2018-07-14T10:36:25.979Z,56.07
2018-07-14T10:37:25.960Z,56.14
2018-07-14T10:38:25.924Z,58.40
2018-07-14T10:39:25.926Z,56.36
2018-07-14T10:40:25.879Z,56.56
2018-07-14T10:41:25.853Z,56.16
2018-07-14T10:42:25.876Z,57.63
2018-07-14T10:43:25.806Z,56.62
2018-07-14T10:44:25.795Z,57.11
2018-07-14T10:45:25.746Z,56.52
2018-07-14T10:46:25.726Z,59.45
2018-07-14T10:47:25.696Z,58.73
2018-07-14T10:48:25.677Z,56.29
2018-07-14T10:49:25.679Z,56.46
2018-07-14T10:50:25.626Z,56.16
2018-07-14T10:51:25.647Z,56.20
2018-07-14T10:52:25.571Z,55.02
2018-07-14T10:53:25.550Z,57.26
2018-07-14T10:54:25.525Z,55.32
2018-07-14T10:55:25.530Z,57.24
2018-07-14T10:56:25.469Z,56.36
2018-07-14T10:57:25.445Z,54.68
2018-07-14T10:58:25.426Z,56.43
2018-07-14T10:59:25.396Z,58.09
2018-07-14T11:00:25.401Z,57.64
2018-07-14T11:01:25.353Z,59.30
2018-07-14T11:02:25.319Z,59.49
2018-07-14T11:03:25.294Z,58.61
2018-07-14T11:04:25.282Z,58.61
2018-07-14T11:05:25.282Z,59.49
2018-07-14T11:06:25.227Z,59.23
2018-07-14T11:07:25.197Z,59.45
2018-07-14T11:08:25.171Z,57.70
2018-07-14T11:09:25.143Z,57.57
2018-07-14T11:10:25.123Z,56.76
2018-07-14T11:11:25.123Z,58.26
2018-07-14T11:12:25.071Z,59.50
2018-07-14T11:13:25.045Z,60.77
2018-07-14T11:14:25.019Z,60.77
2018-07-14T11:15:24.989Z,64.23
2018-07-14T11:16:24.988Z,63.36
2018-07-14T11:17:24.941Z,61.25
2018-07-14T11:18:24.912Z,61.28
2018-07-14T11:19:24.884Z,60.72
2018-07-14T11:20:24.853Z,59.59
2018-07-14T11:21:24.847Z,58.32
2018-07-14T11:22:24.794Z,59.72
2018-07-14T11:23:24.768Z,59.81
2018-07-14T11:24:24.751Z,57.76
2018-07-14T11:25:24.715Z,57.70
2018-07-14T11:26:24.684Z,56.33
2018-07-14T11:27:24.683Z,56.43
2018-07-14T11:28:24.634Z,57.53
2018-07-14T11:29:24.612Z,58.12
2018-07-14T11:30:24.586Z,56.99
2018-07-14T11:31:24.559Z,57.28
2018-07-14T11:32:24.539Z,57.64
2018-07-14T11:33:24.495Z,58.10
2018-07-14T11:34:24.504Z,58.75
2018-07-14T11:35:24.439Z,59.43
2018-07-14T11:36:24.416Z,59.72
2018-07-14T11:37:24.410Z,59.05
2018-07-14T11:38:24.364Z,59.36
2018-07-14T11:39:24.329Z,59.30
2018-07-14T11:40:24.295Z,59.72
2018-07-14T11:41:24.270Z,58.74
2018-07-14T11:42:24.272Z,57.31
2018-07-14T11:43:24.217Z,56.65
2018-07-14T11:44:24.186Z,55.68
2018-07-14T11:45:24.155Z,54.70
2018-07-14T11:46:24.129Z,54.70
2018-07-14T11:47:24.151Z,54.31
2018-07-14T11:48:24.099Z,55.19
2018-07-14T11:49:24.052Z,54.99
2018-07-14T11:50:24.028Z,54.80
2018-07-14T11:51:24.000Z,54.60
2018-07-14T11:52:23.962Z,54.21
2018-07-14T11:53:23.957Z,54.05
2018-07-14T11:54:23.912Z,54.11
2018-07-14T11:55:23.884Z,54.11
2018-07-14T11:56:23.865Z,54.11
2018-07-14T11:57:23.834Z,56.46
2018-07-14T11:58:23.823Z,57.65
2018-07-14T11:59:23.778Z,54.73
2018-07-14T12:00:23.755Z,54.93
2018-07-14T12:01:23.758Z,55.90
2018-07-14T12:02:23.702Z,53.56
2018-07-14T12:03:23.703Z,53.27
2018-07-14T12:04:23.647Z,52.80
2018-07-14T12:05:23.621Z,54.36
2018-07-14T12:06:23.592Z,53.36
2018-07-14T12:07:23.605Z,53.21
2018-07-14T12:08:23.569Z,54.09
2018-07-14T12:09:23.524Z,53.80
2018-07-14T12:10:23.507Z,53.41
2018-07-14T12:11:23.471Z,54.77
2018-07-14T12:12:23.437Z,56.36
2018-07-14T12:13:23.497Z,53.24
2018-07-14T12:14:23.394Z,54.50
2018-07-14T12:15:23.376Z,53.05
2018-07-14T12:16:23.335Z,53.14
2018-07-14T12:17:23.311Z,53.34
2018-07-14T12:18:23.286Z,53.11
2018-07-14T12:19:23.293Z,53.92
2018-07-14T12:20:23.237Z,52.92
2018-07-14T12:21:23.214Z,54.11
2018-07-14T12:22:23.230Z,54.70
2018-07-14T12:23:23.160Z,54.02
2018-07-14T12:24:23.164Z,54.02
2018-07-14T12:25:23.104Z,53.44
2018-07-14T12:26:23.079Z,54.38
2018-07-14T12:27:23.053Z,54.36
2018-07-14T12:28:23.044Z,54.23
2018-07-14T12:29:23.027Z,53.94
2018-07-14T12:30:23.066Z,53.75
2018-07-14T12:31:22.948Z,55.11
2018-07-14T12:32:22.925Z,54.94
2018-07-14T12:33:22.900Z,54.72
2018-07-14T12:34:22.899Z,54.85
2018-07-14T12:35:22.852Z,55.04
2018-07-14T12:36:22.835Z,54.16
2018-07-14T12:37:22.782Z,53.87
2018-07-14T12:38:22.758Z,53.26
2018-07-14T12:39:22.731Z,54.85
2018-07-14T12:40:22.729Z,53.06
2018-07-14T12:41:22.682Z,52.84
2018-07-14T12:42:22.665Z,54.72
2018-07-14T12:43:22.638Z,54.72
2018-07-14T12:44:22.590Z,53.94
2018-07-14T12:45:22.590Z,53.62
2018-07-14T12:46:22.550Z,54.66
2018-07-14T12:47:22.530Z,54.86
2018-07-14T12:48:22.497Z,54.28
2018-07-14T12:49:22.456Z,54.35
2018-07-14T12:50:22.445Z,55.03
2018-07-14T12:51:22.401Z,55.51
2018-07-14T12:52:22.377Z,54.96